sensor_id;sensor_type;location;lat;lon;timestamp;temperature;humidity
19342;DHT22;9807;48.258;12.690;2022-08-02T00:00:26;22.20;99.90
19342;DHT22;9807;48.258;12.690;2022-08-02T00:02:52;22.40;99.90
19342;DHT22;9807;48.258;12.690;2022-08-02T00:05:18;22.50;99.90
19342;DHT22;9807;48.258;12.690;2022-08-02T00:07:44;22.60;99.90
19342;DHT22;9807;48.258;12.690;2022-08-02T00:10:10;22.70;99.90
19342;DHT22;9807;48.258;12.690;2022-08-02T00:12:38;22.80;99.90
19342;DHT22;9807;48.258;12.690;2022-08-02T00:15:06;22.90;99.90
19342;DHT22;9807;48.258;12.690;2022-08-02T00:17:32;22.90;99.90
19342;DHT22;9807;48.258;12.690;2022-08-02T00:19:58;22.80;99.90
19342;DHT22;9807;48.258;12.690;2022-08-02T00:22:24;22.70;99.90
19342;DHT22;9807;48.258;12.690;2022-08-02T00:24:50;22.50;99.90
19342;DHT22;9807;48.258;12.690;2022-08-02T00:27:15;22.40;99.90
19342;DHT22;9807;48.258;12.690;2022-08-02T00:29:41;22.10;99.90
19342;DHT22;9807;48.258;12.690;2022-08-02T00:32:07;21.80;99.90
19342;DHT22;9807;48.258;12.690;2022-08-02T00:34:32;21.60;99.90
19342;DHT22;9807;48.258;12.690;2022-08-02T00:36:58;21.40;99.90
19342;DHT22;9807;48.258;12.690;2022-08-02T00:39:24;21.50;99.90
19342;DHT22;9807;48.258;12.690;2022-08-02T00:41:53;21.70;99.90
19342;DHT22;9807;48.258;12.690;2022-08-02T00:44:20;21.90;99.90
19342;DHT22;9807;48.258;12.690;2022-08-02T00:46:45;22.20;99.90
19342;DHT22;9807;48.258;12.690;2022-08-02T00:49:14;22.40;99.90
19342;DHT22;9807;48.258;12.690;2022-08-02T00:51:40;22.60;99.90
19342;DHT22;9807;48.258;12.690;2022-08-02T00:54:07;22.70;99.90
19342;DHT22;9807;48.258;12.690;2022-08-02T00:56:33;22.60;99.90
19342;DHT22;9807;48.258;12.690;2022-08-02T00:59:00;22.50;99.90
19342;DHT22;9807;48.258;12.690;2022-08-02T01:01:26;22.30;99.90
19342;DHT22;9807;48.258;12.690;2022-08-02T01:04:09;21.90;99.90
19342;DHT22;9807;48.258;12.690;2022-08-02T01:06:38;22.00;99.90
19342;DHT22;9807;48.258;12.690;2022-08-02T01:09:05;22.20;99.90
19342;DHT22;9807;48.258;12.690;2022-08-02T01:11:32;22.30;99.90
19342;DHT22;9807;48.258;12.690;2022-08-02T01:14:04;22.40;99.90
19342;DHT22;9807;48.258;12.690;2022-08-02T01:16:32;22.60;99.90
19342;DHT22;9807;48.258;12.690;2022-08-02T01:27:36;21.50;99.90
19342;DHT22;9807;48.258;12.690;2022-08-02T01:30:07;21.20;99.90
19342;DHT22;9807;48.258;12.690;2022-08-02T01:32:41;21.00;99.90
19342;DHT22;9807;48.258;12.690;2022-08-02T01:35:14;20.80;99.90
19342;DHT22;9807;48.258;12.690;2022-08-02T01:37:46;20.60;99.90
19342;DHT22;9807;48.258;12.690;2022-08-02T01:40:19;20.60;99.90
19342;DHT22;9807;48.258;12.690;2022-08-02T01:42:48;20.60;99.90
19342;DHT22;9807;48.258;12.690;2022-08-02T01:45:15;20.60;99.90
19342;DHT22;9807;48.258;12.690;2022-08-02T01:47:44;20.60;99.90
19342;DHT22;9807;48.258;12.690;2022-08-02T01:50:14;20.70;99.90
19342;DHT22;9807;48.258;12.690;2022-08-02T01:52:52;20.80;99.90
19342;DHT22;9807;48.258;12.690;2022-08-02T01:55:23;20.80;99.90
19342;DHT22;9807;48.258;12.690;2022-08-02T01:57:52;20.80;99.90
19342;DHT22;9807;48.258;12.690;2022-08-02T02:00:22;20.90;99.90
19342;DHT22;9807;48.258;12.690;2022-08-02T02:02:49;21.10;99.90
19342;DHT22;9807;48.258;12.690;2022-08-02T02:05:19;21.30;99.90
19342;DHT22;9807;48.258;12.690;2022-08-02T02:07:49;21.60;99.90
19342;DHT22;9807;48.258;12.690;2022-08-02T02:10:18;21.70;99.90
19342;DHT22;9807;48.258;12.690;2022-08-02T02:12:49;21.90;99.90
19342;DHT22;9807;48.258;12.690;2022-08-02T02:15:16;21.90;99.90
19342;DHT22;9807;48.258;12.690;2022-08-02T02:17:44;21.80;99.90
19342;DHT22;9807;48.258;12.690;2022-08-02T02:20:16;21.60;99.90
19342;DHT22;9807;48.258;12.690;2022-08-02T02:22:42;21.50;99.90
19342;DHT22;9807;48.258;12.690;2022-08-02T02:25:09;21.30;99.90
19342;DHT22;9807;48.258;12.690;2022-08-02T02:27:36;21.30;99.90
19342;DHT22;9807;48.258;12.690;2022-08-02T02:30:04;21.30;99.90
19342;DHT22;9807;48.258;12.690;2022-08-02T02:32:33;21.30;99.90
19342;DHT22;9807;48.258;12.690;2022-08-02T02:35:01;21.20;99.90
19342;DHT22;9807;48.258;12.690;2022-08-02T02:37:29;21.00;99.90
19342;DHT22;9807;48.258;12.690;2022-08-02T02:39:57;20.70;99.90
19342;DHT22;9807;48.258;12.690;2022-08-02T02:42:28;20.50;99.90
19342;DHT22;9807;48.258;12.690;2022-08-02T02:44:56;20.30;99.90
19342;DHT22;9807;48.258;12.690;2022-08-02T02:47:23;20.20;99.90
19342;DHT22;9807;48.258;12.690;2022-08-02T02:49:50;20.20;99.90
19342;DHT22;9807;48.258;12.690;2022-08-02T02:52:17;20.10;99.90
19342;DHT22;9807;48.258;12.690;2022-08-02T02:54:46;20.00;99.90
19342;DHT22;9807;48.258;12.690;2022-08-02T02:57:12;20.00;99.90
19342;DHT22;9807;48.258;12.690;2022-08-02T02:59:39;20.00;99.90
19342;DHT22;9807;48.258;12.690;2022-08-02T03:02:05;20.00;99.90
19342;DHT22;9807;48.258;12.690;2022-08-02T03:04:32;20.10;99.90
19342;DHT22;9807;48.258;12.690;2022-08-02T03:06:59;20.00;99.90
19342;DHT22;9807;48.258;12.690;2022-08-02T03:09:28;20.00;99.90
19342;DHT22;9807;48.258;12.690;2022-08-02T03:11:54;20.00;99.90
19342;DHT22;9807;48.258;12.690;2022-08-02T03:14:21;20.00;99.90
19342;DHT22;9807;48.258;12.690;2022-08-02T03:16:49;19.90;99.90
19342;DHT22;9807;48.258;12.690;2022-08-02T03:19:16;20.00;99.90
19342;DHT22;9807;48.258;12.690;2022-08-02T03:21:43;20.00;99.90
19342;DHT22;9807;48.258;12.690;2022-08-02T03:24:10;19.90;99.90
19342;DHT22;9807;48.258;12.690;2022-08-02T03:26:35;19.80;99.90
19342;DHT22;9807;48.258;12.690;2022-08-02T03:29:01;19.80;99.90
19342;DHT22;9807;48.258;12.690;2022-08-02T03:31:27;19.90;99.90
19342;DHT22;9807;48.258;12.690;2022-08-02T03:33:54;20.00;99.90
19342;DHT22;9807;48.258;12.690;2022-08-02T03:36:22;20.20;99.90
19342;DHT22;9807;48.258;12.690;2022-08-02T03:38:49;20.30;99.90
19342;DHT22;9807;48.258;12.690;2022-08-02T03:41:17;20.50;99.90
19342;DHT22;9807;48.258;12.690;2022-08-02T03:43:49;20.70;99.90
19342;DHT22;9807;48.258;12.690;2022-08-02T03:46:20;20.90;99.90
19342;DHT22;9807;48.258;12.690;2022-08-02T03:48:49;21.20;99.90
19342;DHT22;9807;48.258;12.690;2022-08-02T03:51:15;21.40;99.90
19342;DHT22;9807;48.258;12.690;2022-08-02T03:53:41;21.50;99.90
19342;DHT22;9807;48.258;12.690;2022-08-02T03:56:10;21.60;99.90
19342;DHT22;9807;48.258;12.690;2022-08-02T03:58:36;21.70;99.90
19342;DHT22;9807;48.258;12.690;2022-08-02T04:01:02;21.80;99.90
19342;DHT22;9807;48.258;12.690;2022-08-02T04:03:30;21.80;99.90
19342;DHT22;9807;48.258;12.690;2022-08-02T04:05:56;21.90;99.90
19342;DHT22;9807;48.258;12.690;2022-08-02T04:08:22;21.90;99.90
19342;DHT22;9807;48.258;12.690;2022-08-02T04:10:47;21.90;99.90
19342;DHT22;9807;48.258;12.690;2022-08-02T04:13:37;22.00;99.90
19342;DHT22;9807;48.258;12.690;2022-08-02T04:19:06;21.60;99.90
19342;DHT22;9807;48.258;12.690;2022-08-02T04:21:36;21.10;99.90
19342;DHT22;9807;48.258;12.690;2022-08-02T04:24:03;20.70;99.90
19342;DHT22;9807;48.258;12.690;2022-08-02T04:26:31;20.80;99.90
19342;DHT22;9807;48.258;12.690;2022-08-02T04:28:58;20.90;99.90
19342;DHT22;9807;48.258;12.690;2022-08-02T04:31:24;21.00;99.90
19342;DHT22;9807;48.258;12.690;2022-08-02T04:33:51;21.30;99.90
19342;DHT22;9807;48.258;12.690;2022-08-02T04:36:17;21.30;99.90
19342;DHT22;9807;48.258;12.690;2022-08-02T04:38:42;21.20;99.90
19342;DHT22;9807;48.258;12.690;2022-08-02T04:41:08;21.20;99.90
19342;DHT22;9807;48.258;12.690;2022-08-02T04:43:34;21.20;99.90
19342;DHT22;9807;48.258;12.690;2022-08-02T04:46:00;21.10;99.90
19342;DHT22;9807;48.258;12.690;2022-08-02T04:48:30;21.20;99.90
19342;DHT22;9807;48.258;12.690;2022-08-02T04:50:56;21.40;99.90
19342;DHT22;9807;48.258;12.690;2022-08-02T04:53:22;21.60;99.90
19342;DHT22;9807;48.258;12.690;2022-08-02T04:55:48;21.70;99.90
19342;DHT22;9807;48.258;12.690;2022-08-02T04:58:14;21.80;99.90
19342;DHT22;9807;48.258;12.690;2022-08-02T05:00:40;21.70;99.90
19342;DHT22;9807;48.258;12.690;2022-08-02T05:03:07;21.70;99.90
19342;DHT22;9807;48.258;12.690;2022-08-02T05:05:33;21.70;99.90
19342;DHT22;9807;48.258;12.690;2022-08-02T05:07:59;21.70;99.90
19342;DHT22;9807;48.258;12.690;2022-08-02T05:10:25;21.70;99.90
19342;DHT22;9807;48.258;12.690;2022-08-02T05:12:51;21.70;99.90
19342;DHT22;9807;48.258;12.690;2022-08-02T05:15:16;21.60;99.90
19342;DHT22;9807;48.258;12.690;2022-08-02T05:17:49;21.70;99.90
19342;DHT22;9807;48.258;12.690;2022-08-02T05:20:16;21.80;99.90
19342;DHT22;9807;48.258;12.690;2022-08-02T05:22:43;21.60;99.90
19342;DHT22;9807;48.258;12.690;2022-08-02T05:25:13;21.40;99.90
19342;DHT22;9807;48.258;12.690;2022-08-02T05:27:39;21.20;99.90
19342;DHT22;9807;48.258;12.690;2022-08-02T05:30:06;21.10;99.90
19342;DHT22;9807;48.258;12.690;2022-08-02T05:32:32;21.10;99.90
19342;DHT22;9807;48.258;12.690;2022-08-02T05:35:02;21.10;99.90
19342;DHT22;9807;48.258;12.690;2022-08-02T05:37:28;21.20;99.90
19342;DHT22;9807;48.258;12.690;2022-08-02T05:39:54;21.40;99.90
19342;DHT22;9807;48.258;12.690;2022-08-02T05:42:20;21.50;99.90
19342;DHT22;9807;48.258;12.690;2022-08-02T05:44:46;21.70;99.90
19342;DHT22;9807;48.258;12.690;2022-08-02T05:47:12;21.90;99.90
19342;DHT22;9807;48.258;12.690;2022-08-02T05:49:37;22.10;99.90
19342;DHT22;9807;48.258;12.690;2022-08-02T05:52:16;22.20;99.90
19342;DHT22;9807;48.258;12.690;2022-08-02T05:57:40;22.40;99.90
19342;DHT22;9807;48.258;12.690;2022-08-02T06:00:13;22.50;99.90
19342;DHT22;9807;48.258;12.690;2022-08-02T06:05:16;22.60;99.90
19342;DHT22;9807;48.258;12.690;2022-08-02T06:07:45;22.70;99.90
19342;DHT22;9807;48.258;12.690;2022-08-02T06:10:12;22.80;99.90
19342;DHT22;9807;48.258;12.690;2022-08-02T06:15:14;22.90;99.90
19342;DHT22;9807;48.258;12.690;2022-08-02T06:17:40;23.00;99.90
19342;DHT22;9807;48.258;12.690;2022-08-02T06:20:06;23.00;99.90
19342;DHT22;9807;48.258;12.690;2022-08-02T06:22:33;23.10;99.90
19342;DHT22;9807;48.258;12.690;2022-08-02T06:25:00;23.10;99.90
19342;DHT22;9807;48.258;12.690;2022-08-02T06:27:27;23.20;99.90
19342;DHT22;9807;48.258;12.690;2022-08-02T06:29:53;23.10;99.90
19342;DHT22;9807;48.258;12.690;2022-08-02T06:32:20;23.20;99.90
19342;DHT22;9807;48.258;12.690;2022-08-02T06:34:46;23.30;99.90
19342;DHT22;9807;48.258;12.690;2022-08-02T06:37:23;23.50;99.90
19342;DHT22;9807;48.258;12.690;2022-08-02T06:39:58;23.60;99.90
19342;DHT22;9807;48.258;12.690;2022-08-02T06:45:12;23.90;99.90
19342;DHT22;9807;48.258;12.690;2022-08-02T06:47:39;24.20;99.90
19342;DHT22;9807;48.258;12.690;2022-08-02T06:50:09;24.40;99.90
19342;DHT22;9807;48.258;12.690;2022-08-02T06:52:34;24.40;99.90
19342;DHT22;9807;48.258;12.690;2022-08-02T06:55:02;24.40;99.90
19342;DHT22;9807;48.258;12.690;2022-08-02T06:57:29;24.30;99.90
19342;DHT22;9807;48.258;12.690;2022-08-02T06:59:55;24.10;99.90
19342;DHT22;9807;48.258;12.690;2022-08-02T07:02:21;24.10;99.90
19342;DHT22;9807;48.258;12.690;2022-08-02T07:04:47;24.30;99.90
19342;DHT22;9807;48.258;12.690;2022-08-02T07:07:17;24.40;99.90
19342;DHT22;9807;48.258;12.690;2022-08-02T07:09:43;24.70;99.90
19342;DHT22;9807;48.258;12.690;2022-08-02T07:12:09;24.70;99.90
19342;DHT22;9807;48.258;12.690;2022-08-02T07:14:35;24.90;99.90
19342;DHT22;9807;48.258;12.690;2022-08-02T07:17:04;24.90;99.90
19342;DHT22;9807;48.258;12.690;2022-08-02T07:19:30;25.10;99.90
19342;DHT22;9807;48.258;12.690;2022-08-02T07:21:56;24.80;99.90
19342;DHT22;9807;48.258;12.690;2022-08-02T07:24:22;24.60;99.90
19342;DHT22;9807;48.258;12.690;2022-08-02T07:26:47;24.60;99.90
19342;DHT22;9807;48.258;12.690;2022-08-02T07:29:18;24.80;99.90
19342;DHT22;9807;48.258;12.690;2022-08-02T07:31:44;24.60;99.90
19342;DHT22;9807;48.258;12.690;2022-08-02T07:34:10;24.80;99.90
19342;DHT22;9807;48.258;12.690;2022-08-02T07:36:36;25.00;99.90
19342;DHT22;9807;48.258;12.690;2022-08-02T07:39:04;25.00;99.90
19342;DHT22;9807;48.258;12.690;2022-08-02T07:41:30;25.00;99.90
19342;DHT22;9807;48.258;12.690;2022-08-02T07:43:56;25.10;99.90
19342;DHT22;9807;48.258;12.690;2022-08-02T07:46:21;24.90;99.90
19342;DHT22;9807;48.258;12.690;2022-08-02T07:48:47;24.80;99.90
19342;DHT22;9807;48.258;12.690;2022-08-02T07:51:13;24.80;99.90
19342;DHT22;9807;48.258;12.690;2022-08-02T07:53:39;25.00;99.90
19342;DHT22;9807;48.258;12.690;2022-08-02T07:56:05;25.30;99.90
19342;DHT22;9807;48.258;12.690;2022-08-02T07:58:31;25.10;99.90
19342;DHT22;9807;48.258;12.690;2022-08-02T08:00:57;24.70;99.90
19342;DHT22;9807;48.258;12.690;2022-08-02T08:03:23;24.60;99.90
19342;DHT22;9807;48.258;12.690;2022-08-02T08:05:48;24.50;99.90
19342;DHT22;9807;48.258;12.690;2022-08-02T08:08:14;24.30;99.90
19342;DHT22;9807;48.258;12.690;2022-08-02T08:10:40;24.20;99.90
19342;DHT22;9807;48.258;12.690;2022-08-02T08:13:09;24.20;99.90
19342;DHT22;9807;48.258;12.690;2022-08-02T08:15:34;24.10;99.90
19342;DHT22;9807;48.258;12.690;2022-08-02T08:18:00;24.30;99.90
19342;DHT22;9807;48.258;12.690;2022-08-02T08:20:26;24.40;99.90
19342;DHT22;9807;48.258;12.690;2022-08-02T08:22:52;24.60;99.90
19342;DHT22;9807;48.258;12.690;2022-08-02T08:25:18;24.80;99.90
19342;DHT22;9807;48.258;12.690;2022-08-02T08:27:48;25.00;99.90
19342;DHT22;9807;48.258;12.690;2022-08-02T08:30:14;25.20;99.90
19342;DHT22;9807;48.258;12.690;2022-08-02T08:32:40;25.20;99.90
19342;DHT22;9807;48.258;12.690;2022-08-02T08:35:06;25.10;99.90
19342;DHT22;9807;48.258;12.690;2022-08-02T08:37:34;24.80;99.90
19342;DHT22;9807;48.258;12.690;2022-08-02T08:40:00;24.70;99.90
19342;DHT22;9807;48.258;12.690;2022-08-02T08:42:26;24.90;99.90
19342;DHT22;9807;48.258;12.690;2022-08-02T08:44:53;25.00;99.90
19342;DHT22;9807;48.258;12.690;2022-08-02T08:47:23;25.00;99.90
19342;DHT22;9807;48.258;12.690;2022-08-02T08:49:51;24.80;99.90
19342;DHT22;9807;48.258;12.690;2022-08-02T08:52:22;24.80;99.90
19342;DHT22;9807;48.258;12.690;2022-08-02T08:54:49;24.80;99.90
19342;DHT22;9807;48.258;12.690;2022-08-02T08:57:16;24.70;99.90
19342;DHT22;9807;48.258;12.690;2022-08-02T08:59:44;24.70;99.90
19342;DHT22;9807;48.258;12.690;2022-08-02T09:02:10;24.90;99.90
19342;DHT22;9807;48.258;12.690;2022-08-02T09:04:36;25.50;99.90
19342;DHT22;9807;48.258;12.690;2022-08-02T09:07:02;25.60;99.90
19342;DHT22;9807;48.258;12.690;2022-08-02T09:09:27;25.50;99.90
19342;DHT22;9807;48.258;12.690;2022-08-02T09:11:53;25.70;99.90
19342;DHT22;9807;48.258;12.690;2022-08-02T09:14:29;25.70;99.90
19342;DHT22;9807;48.258;12.690;2022-08-02T09:17:10;25.70;99.90
19342;DHT22;9807;48.258;12.690;2022-08-02T09:19:37;25.70;99.90
19342;DHT22;9807;48.258;12.690;2022-08-02T09:22:06;26.30;99.90
19342;DHT22;9807;48.258;12.690;2022-08-02T09:24:49;26.70;99.90
19342;DHT22;9807;48.258;12.690;2022-08-02T09:27:22;26.60;99.90
19342;DHT22;9807;48.258;12.690;2022-08-02T09:29:52;26.50;99.90
19342;DHT22;9807;48.258;12.690;2022-08-02T09:32:19;26.20;99.90
19342;DHT22;9807;48.258;12.690;2022-08-02T09:34:47;26.10;99.90
19342;DHT22;9807;48.258;12.690;2022-08-02T09:39:48;26.40;99.90
19342;DHT22;9807;48.258;12.690;2022-08-02T09:42:14;26.50;99.90
19342;DHT22;9807;48.258;12.690;2022-08-02T09:44:55;26.40;99.90
19342;DHT22;9807;48.258;12.690;2022-08-02T09:47:25;26.10;99.90
19342;DHT22;9807;48.258;12.690;2022-08-02T09:49:55;26.10;99.90
19342;DHT22;9807;48.258;12.690;2022-08-02T09:52:28;26.30;99.90
19342;DHT22;9807;48.258;12.690;2022-08-02T09:54:54;26.50;99.90
19342;DHT22;9807;48.258;12.690;2022-08-02T09:57:27;26.30;99.90
19342;DHT22;9807;48.258;12.690;2022-08-02T09:59:57;26.40;99.90
19342;DHT22;9807;48.258;12.690;2022-08-02T10:02:23;26.60;99.90
19342;DHT22;9807;48.258;12.690;2022-08-02T10:04:49;27.00;99.90
19342;DHT22;9807;48.258;12.690;2022-08-02T10:07:15;27.10;99.90
19342;DHT22;9807;48.258;12.690;2022-08-02T10:09:42;27.20;99.90
19342;DHT22;9807;48.258;12.690;2022-08-02T10:12:11;27.00;99.90
19342;DHT22;9807;48.258;12.690;2022-08-02T10:14:37;26.90;99.90
19342;DHT22;9807;48.258;12.690;2022-08-02T10:17:03;26.90;99.90
19342;DHT22;9807;48.258;12.690;2022-08-02T10:19:29;26.60;99.90
19342;DHT22;9807;48.258;12.690;2022-08-02T10:21:59;26.60;99.90
19342;DHT22;9807;48.258;12.690;2022-08-02T10:24:27;26.80;99.90
19342;DHT22;9807;48.258;12.690;2022-08-02T10:26:53;27.00;99.90
19342;DHT22;9807;48.258;12.690;2022-08-02T10:29:30;26.90;99.90
19342;DHT22;9807;48.258;12.690;2022-08-02T10:32:03;26.90;99.90
19342;DHT22;9807;48.258;12.690;2022-08-02T10:34:47;27.10;99.90
19342;DHT22;9807;48.258;12.690;2022-08-02T10:37:16;27.40;99.90
19342;DHT22;9807;48.258;12.690;2022-08-02T10:39:44;27.10;99.90
19342;DHT22;9807;48.258;12.690;2022-08-02T10:42:11;26.70;99.90
19342;DHT22;9807;48.258;12.690;2022-08-02T10:44:40;26.60;99.90
19342;DHT22;9807;48.258;12.690;2022-08-02T10:47:24;26.60;99.90
19342;DHT22;9807;48.258;12.690;2022-08-02T10:49:57;26.70;99.90
19342;DHT22;9807;48.258;12.690;2022-08-02T10:52:30;27.00;99.90
19342;DHT22;9807;48.258;12.690;2022-08-02T10:55:11;27.30;99.90
19342;DHT22;9807;48.258;12.690;2022-08-02T10:57:37;27.60;99.90
19342;DHT22;9807;48.258;12.690;2022-08-02T11:00:10;27.80;99.90
19342;DHT22;9807;48.258;12.690;2022-08-02T11:02:41;27.70;99.90
19342;DHT22;9807;48.258;12.690;2022-08-02T11:05:28;27.60;99.90
19342;DHT22;9807;48.258;12.690;2022-08-02T11:07:54;27.60;99.90
19342;DHT22;9807;48.258;12.690;2022-08-02T11:10:46;27.90;99.90
19342;DHT22;9807;48.258;12.690;2022-08-02T11:13:13;28.10;99.90
19342;DHT22;9807;48.258;12.690;2022-08-02T11:16:00;28.10;99.90
19342;DHT22;9807;48.258;12.690;2022-08-02T11:21:34;28.20;99.90
19342;DHT22;9807;48.258;12.690;2022-08-02T11:24:26;28.20;99.90
19342;DHT22;9807;48.258;12.690;2022-08-02T11:26:53;28.40;99.90
19342;DHT22;9807;48.258;12.690;2022-08-02T11:29:19;28.60;99.90
19342;DHT22;9807;48.258;12.690;2022-08-02T11:31:45;28.80;99.90
19342;DHT22;9807;48.258;12.690;2022-08-02T11:34:10;28.70;99.90
19342;DHT22;9807;48.258;12.690;2022-08-02T11:36:49;28.50;99.90
19342;DHT22;9807;48.258;12.690;2022-08-02T11:39:17;28.30;99.90
19342;DHT22;9807;48.258;12.690;2022-08-02T11:41:55;28.30;99.90
19342;DHT22;9807;48.258;12.690;2022-08-02T11:44:22;28.40;99.90
19342;DHT22;9807;48.258;12.690;2022-08-02T11:46:55;28.50;99.90
19342;DHT22;9807;48.258;12.690;2022-08-02T11:49:24;28.70;99.90
19342;DHT22;9807;48.258;12.690;2022-08-02T11:51:57;28.60;99.90
19342;DHT22;9807;48.258;12.690;2022-08-02T11:54:34;28.40;99.90
19342;DHT22;9807;48.258;12.690;2022-08-02T11:57:17;28.30;99.90
19342;DHT22;9807;48.258;12.690;2022-08-02T11:59:45;28.60;99.90
19342;DHT22;9807;48.258;12.690;2022-08-02T12:02:12;28.70;99.90
19342;DHT22;9807;48.258;12.690;2022-08-02T12:04:39;28.80;99.90
19342;DHT22;9807;48.258;12.690;2022-08-02T12:07:08;28.90;99.90
19342;DHT22;9807;48.258;12.690;2022-08-02T12:09:35;29.10;99.90
19342;DHT22;9807;48.258;12.690;2022-08-02T12:12:02;29.30;99.90
19342;DHT22;9807;48.258;12.690;2022-08-02T12:14:30;29.40;99.90
19342;DHT22;9807;48.258;12.690;2022-08-02T12:16:56;29.50;99.90
19342;DHT22;9807;48.258;12.690;2022-08-02T12:19:41;29.20;99.90
19342;DHT22;9807;48.258;12.690;2022-08-02T12:24:47;28.70;99.90
19342;DHT22;9807;48.258;12.690;2022-08-02T12:27:33;28.60;99.90
19342;DHT22;9807;48.258;12.690;2022-08-02T12:32:29;28.80;99.90
19342;DHT22;9807;48.258;12.690;2022-08-02T12:35:15;28.90;99.90
19342;DHT22;9807;48.258;12.690;2022-08-02T12:37:43;29.00;99.90
19342;DHT22;9807;48.258;12.690;2022-08-02T12:40:32;29.10;99.90
19342;DHT22;9807;48.258;12.690;2022-08-02T12:43:03;29.20;99.90
19342;DHT22;9807;48.258;12.690;2022-08-02T12:45:49;29.40;99.90
19342;DHT22;9807;48.258;12.690;2022-08-02T12:48:28;29.50;99.90
19342;DHT22;9807;48.258;12.690;2022-08-02T12:53:39;29.90;99.90
19342;DHT22;9807;48.258;12.690;2022-08-02T12:56:05;30.00;99.90
19342;DHT22;9807;48.258;12.690;2022-08-02T12:58:49;30.00;99.90
19342;DHT22;9807;48.258;12.690;2022-08-02T13:01:23;30.10;99.90
19342;DHT22;9807;48.258;12.690;2022-08-02T13:03:49;30.10;99.90
19342;DHT22;9807;48.258;12.690;2022-08-02T13:06:16;30.20;99.90
19342;DHT22;9807;48.258;12.690;2022-08-02T13:08:42;30.30;99.90
19342;DHT22;9807;48.258;12.690;2022-08-02T13:11:08;30.20;99.90
19342;DHT22;9807;48.258;12.690;2022-08-02T13:13:34;30.10;99.90
19342;DHT22;9807;48.258;12.690;2022-08-02T13:16:08;30.10;99.90
19342;DHT22;9807;48.258;12.690;2022-08-02T13:18:34;30.20;99.90
19342;DHT22;9807;48.258;12.690;2022-08-02T13:21:01;30.30;99.90
19342;DHT22;9807;48.258;12.690;2022-08-02T13:23:29;30.30;99.90
19342;DHT22;9807;48.258;12.690;2022-08-02T13:25:55;30.30;99.90
19342;DHT22;9807;48.258;12.690;2022-08-02T13:28:21;30.30;99.90
19342;DHT22;9807;48.258;12.690;2022-08-02T13:30:48;30.50;99.90
19342;DHT22;9807;48.258;12.690;2022-08-02T13:33:14;30.60;99.90
19342;DHT22;9807;48.258;12.690;2022-08-02T13:35:41;30.70;99.90
19342;DHT22;9807;48.258;12.690;2022-08-02T13:38:10;30.80;99.90
19342;DHT22;9807;48.258;12.690;2022-08-02T13:40:36;30.90;99.90
19342;DHT22;9807;48.258;12.690;2022-08-02T13:43:21;31.00;99.90
19342;DHT22;9807;48.258;12.690;2022-08-02T13:45:47;31.00;99.90
19342;DHT22;9807;48.258;12.690;2022-08-02T13:48:12;31.20;99.90
19342;DHT22;9807;48.258;12.690;2022-08-02T13:50:38;31.30;99.90
19342;DHT22;9807;48.258;12.690;2022-08-02T13:53:04;31.30;99.90
19342;DHT22;9807;48.258;12.690;2022-08-02T13:55:30;31.40;99.90
19342;DHT22;9807;48.258;12.690;2022-08-02T13:57:56;31.30;99.90
19342;DHT22;9807;48.258;12.690;2022-08-02T14:00:22;31.30;99.90
19342;DHT22;9807;48.258;12.690;2022-08-02T14:02:48;31.30;99.90
19342;DHT22;9807;48.258;12.690;2022-08-02T14:05:13;31.40;99.90
19342;DHT22;9807;48.258;12.690;2022-08-02T14:07:39;31.50;99.90
19342;DHT22;9807;48.258;12.690;2022-08-02T14:10:05;31.60;99.90
19342;DHT22;9807;48.258;12.690;2022-08-02T14:12:31;31.60;99.90
19342;DHT22;9807;48.258;12.690;2022-08-02T14:14:57;31.70;99.90
19342;DHT22;9807;48.258;12.690;2022-08-02T14:17:25;31.60;99.90
19342;DHT22;9807;48.258;12.690;2022-08-02T14:19:51;31.70;99.90
19342;DHT22;9807;48.258;12.690;2022-08-02T14:22:17;31.80;99.90
19342;DHT22;9807;48.258;12.690;2022-08-02T14:24:43;31.90;99.90
19342;DHT22;9807;48.258;12.690;2022-08-02T14:27:09;32.10;99.90
19342;DHT22;9807;48.258;12.690;2022-08-02T14:29:38;32.10;99.90
19342;DHT22;9807;48.258;12.690;2022-08-02T14:32:07;32.00;99.90
19342;DHT22;9807;48.258;12.690;2022-08-02T14:34:33;32.20;99.90
19342;DHT22;9807;48.258;12.690;2022-08-02T14:36:59;31.90;99.90
19342;DHT22;9807;48.258;12.690;2022-08-02T14:39:24;32.00;99.90
19342;DHT22;9807;48.258;12.690;2022-08-02T14:41:50;32.10;99.90
19342;DHT22;9807;48.258;12.690;2022-08-02T14:44:16;32.20;99.90
19342;DHT22;9807;48.258;12.690;2022-08-02T14:46:42;32.30;99.90
19342;DHT22;9807;48.258;12.690;2022-08-02T14:49:09;32.40;99.90
19342;DHT22;9807;48.258;12.690;2022-08-02T14:51:36;32.50;99.90
19342;DHT22;9807;48.258;12.690;2022-08-02T14:54:04;32.50;99.90
19342;DHT22;9807;48.258;12.690;2022-08-02T14:56:30;32.50;99.90
19342;DHT22;9807;48.258;12.690;2022-08-02T14:58:56;32.40;99.90
19342;DHT22;9807;48.258;12.690;2022-08-02T15:01:22;32.20;99.90
19342;DHT22;9807;48.258;12.690;2022-08-02T15:03:48;32.20;99.90
19342;DHT22;9807;48.258;12.690;2022-08-02T15:06:14;32.30;99.90
19342;DHT22;9807;48.258;12.690;2022-08-02T15:08:40;32.50;99.90
19342;DHT22;9807;48.258;12.690;2022-08-02T15:11:06;32.60;99.90
19342;DHT22;9807;48.258;12.690;2022-08-02T15:13:32;32.80;99.90
19342;DHT22;9807;48.258;12.690;2022-08-02T15:15:58;32.90;99.90
19342;DHT22;9807;48.258;12.690;2022-08-02T15:18:24;33.00;99.90
19342;DHT22;9807;48.258;12.690;2022-08-02T15:20:49;32.90;99.90
19342;DHT22;9807;48.258;12.690;2022-08-02T15:23:16;32.90;99.90
19342;DHT22;9807;48.258;12.690;2022-08-02T15:25:42;32.80;99.90
19342;DHT22;9807;48.258;12.690;2022-08-02T15:28:08;32.80;99.90
19342;DHT22;9807;48.258;12.690;2022-08-02T15:30:35;32.90;99.90
19342;DHT22;9807;48.258;12.690;2022-08-02T15:33:02;33.00;99.90
19342;DHT22;9807;48.258;12.690;2022-08-02T15:35:28;33.30;99.90
19342;DHT22;9807;48.258;12.690;2022-08-02T15:37:54;33.50;99.90
19342;DHT22;9807;48.258;12.690;2022-08-02T15:40:21;33.60;99.90
19342;DHT22;9807;48.258;12.690;2022-08-02T15:42:50;33.60;99.90
19342;DHT22;9807;48.258;12.690;2022-08-02T15:45:17;33.50;99.90
19342;DHT22;9807;48.258;12.690;2022-08-02T15:47:43;33.50;99.90
19342;DHT22;9807;48.258;12.690;2022-08-02T15:50:10;33.50;99.90
19342;DHT22;9807;48.258;12.690;2022-08-02T15:52:36;33.40;99.90
19342;DHT22;9807;48.258;12.690;2022-08-02T15:55:03;33.50;99.90
19342;DHT22;9807;48.258;12.690;2022-08-02T15:57:29;33.50;99.90
19342;DHT22;9807;48.258;12.690;2022-08-02T15:59:55;33.70;99.90
19342;DHT22;9807;48.258;12.690;2022-08-02T16:02:21;33.70;99.90
19342;DHT22;9807;48.258;12.690;2022-08-02T16:04:47;33.60;99.90
19342;DHT22;9807;48.258;12.690;2022-08-02T16:07:13;33.60;99.90
19342;DHT22;9807;48.258;12.690;2022-08-02T16:09:39;33.70;99.90
19342;DHT22;9807;48.258;12.690;2022-08-02T16:12:05;34.00;99.90